Terminal Aerodrome Forecast
Issued by NWS Sioux Falls, SD

Home | Current Version | Previous Version | Text Only | Print | Product List | Glossary On
Versions: 1 2 3 4 5 6 7 8 9 10 11 12 13 14 15
000
FTUS43 KFSD 311308 AAA
TAFHON
TAF AMD
KHON 311308Z 3113/0112 VRB05KT P6SM SCT050 BKN200
      TEMPO 3113/3115 -SHRA BKN060
     FM311600 14005KT P6SM SCT150=

USA.gov is the U.S. government's official web portal to all federal, state and local government web resources and services.